Time;durP1;ratioP1;P1;durP2;ratioP2;P2;SDS_P1;SDS_P2;PMS_P1;PMS_P2;Temp;Humidity;BMP_temperature;BMP_pressure;BME280_temperature;BME280_humidity;BME280_pressure;Samples;Min_cycle;Max_cycle;Signal;HPM_P1;HPM_P2
2022/08/26 00:00:53;;;;;;;33.60;30.08;;;21.20;99.90;;;;;;5137359;27;20042;-48
2022/08/26 00:03:20;;;;;;;31.85;28.77;;;21.20;99.90;;;;;;5137782;27;20034;-46
2022/08/26 00:05:46;;;;;;;33.40;30.48;;;21.10;99.90;;;;;;5138241;27;20051;-50
2022/08/26 00:08:14;;;;;;;34.30;31.15;;;21.10;99.90;;;;;;5134508;27;20073;-49
2022/08/26 00:10:41;;;;;;;35.70;32.45;;;21.00;99.90;;;;;;5144818;27;20039;-46
2022/08/26 00:13:08;;;;;;;35.00;31.92;;;21.00;99.90;;;;;;5136555;27;20035;-45
2022/08/26 00:15:34;;;;;;;37.38;33.90;;;20.90;99.90;;;;;;5144505;27;20034;-46
2022/08/26 00:17:59;;;;;;;39.85;35.83;;;20.80;99.90;;;;;;5137896;27;20561;-46
2022/08/26 00:20:28;;;;;;;37.10;33.65;;;20.80;99.90;;;;;;5140838;27;20034;-45
2022/08/26 00:22:54;;;;;;;39.45;35.97;;;20.70;99.90;;;;;;5116490;27;20504;-45
2022/08/26 00:25:20;;;;;;;41.47;37.35;;;20.70;99.90;;;;;;5146118;27;20068;-45
2022/08/26 00:27:46;;;;;;;42.05;38.38;;;20.60;99.90;;;;;;5140253;27;20035;-45
2022/08/26 00:30:16;;;;;;;42.65;37.65;;;20.60;99.90;;;;;;5130766;27;20031;-47
2022/08/26 00:32:42;;;;;;;43.30;39.47;;;20.60;99.90;;;;;;5129791;27;20046;-49
2022/08/26 00:35:09;;;;;;;41.05;36.92;;;20.60;99.90;;;;;;5141791;27;20039;-48
2022/08/26 00:37:34;;;;;;;44.08;40.00;;;20.50;99.90;;;;;;5134628;27;20099;-48
2022/08/26 00:40:00;;;;;;;45.60;41.40;;;20.50;99.90;;;;;;5145634;27;21531;-49
2022/08/26 00:42:26;;;;;;;46.35;41.92;;;20.50;99.90;;;;;;5104018;27;1060772;-47
2022/08/26 00:44:53;;;;;;;46.85;42.42;;;20.50;99.90;;;;;;5146234;27;20078;-48
2022/08/26 00:47:38;;;;;;;47.83;43.57;;;20.40;99.90;;;;;;5143323;27;20046;-50
2022/08/26 00:50:09;;;;;;;45.67;41.55;;;20.30;99.90;;;;;;5127388;27;20111;-47
2022/08/26 00:52:35;;;;;;;47.58;43.38;;;20.30;99.90;;;;;;5136623;27;20046;-50
2022/08/26 00:55:12;;;;;;;50.22;45.60;;;20.30;99.90;;;;;;5137983;27;20518;-48
2022/08/26 00:57:38;;;;;;;50.25;45.42;;;20.20;99.90;;;;;;5134205;27;20039;-47
2022/08/26 01:00:10;;;;;;;50.40;46.00;;;20.20;99.90;;;;;;5139787;27;20035;-47
2022/08/26 01:02:36;;;;;;;46.55;42.13;;;20.10;99.90;;;;;;5136556;27;20045;-49
2022/08/26 01:05:04;;;;;;;49.85;45.22;;;20.10;99.90;;;;;;5143218;27;20042;-50
2022/08/26 01:07:31;;;;;;;52.72;48.05;;;20.10;99.90;;;;;;5121793;27;20044;-45
2022/08/26 01:10:04;;;;;;;52.67;47.70;;;20.10;99.90;;;;;;5121945;27;20042;-46
2022/08/26 01:12:36;;;;;;;52.75;47.92;;;20.00;99.90;;;;;;5135351;27;20043;-49
2022/08/26 01:15:02;;;;;;;53.10;47.88;;;20.00;99.90;;;;;;5141781;27;20042;-45
2022/08/26 01:17:28;;;;;;;52.45;47.60;;;20.00;99.90;;;;;;5140203;27;20382;-49
2022/08/26 01:20:01;;;;;;;52.90;47.70;;;19.90;99.90;;;;;;5138804;27;20088;-44
2022/08/26 01:22:42;;;;;;;54.60;49.65;;;19.90;99.90;;;;;;5141978;27;20439;-47
2022/08/26 01:25:09;;;;;;;55.05;49.60;;;19.90;99.90;;;;;;5126689;27;20463;-46
2022/08/26 01:27:35;;;;;;;52.60;47.88;;;19.90;99.90;;;;;;5138516;27;20047;-48
2022/08/26 01:30:02;;;;;;;53.90;48.78;;;19.90;99.90;;;;;;5140201;27;20080;-46
2022/08/26 01:32:31;;;;;;;55.05;49.85;;;19.90;99.90;;;;;;5146241;27;20147;-46
2022/08/26 01:34:57;;;;;;;56.90;51.17;;;19.80;99.90;;;;;;5142489;27;20044;-44
2022/08/26 01:37:27;;;;;;;54.00;49.08;;;19.80;99.90;;;;;;5140208;27;20455;-46
2022/08/26 01:39:54;;;;;;;52.60;47.47;;;19.80;99.90;;;;;;5144169;27;20043;-46
2022/08/26 01:42:23;;;;;;;53.15;48.05;;;19.70;99.90;;;;;;5149858;27;20043;-45
2022/08/26 01:44:53;;;;;;;54.35;49.03;;;19.80;99.90;;;;;;5147902;27;20038;-47
2022/08/26 01:47:22;;;;;;;54.00;48.63;;;19.80;99.90;;;;;;5150785;27;20030;-48
2022/08/26 01:49:51;;;;;;;54.55;49.05;;;19.80;99.90;;;;;;5152697;27;20046;-47
2022/08/26 01:52:22;;;;;;;52.78;47.58;;;19.80;99.90;;;;;;5152048;27;20083;-48
2022/08/26 01:54:49;;;;;;;55.08;49.63;;;19.80;99.90;;;;;;5150883;27;20377;-45
2022/08/26 01:57:15;;;;;;;51.80;46.53;;;19.90;99.90;;;;;;5147282;27;20079;-46
2022/08/26 01:59:41;;;;;;;51.42;46.25;;;19.90;99.90;;;;;;5151697;27;20083;-46
2022/08/26 02:02:07;;;;;;;51.75;46.38;;;19.90;99.90;;;;;;5151745;27;20039;-44
2022/08/26 02:04:38;;;;;;;54.13;47.90;;;19.90;99.90;;;;;;5131597;27;20395;-49
2022/08/26 02:07:07;;;;;;;50.97;45.70;;;20.00;99.90;;;;;;5150623;27;20065;-45
2022/08/26 02:09:37;;;;;;;52.92;47.33;;;20.00;99.90;;;;;;5147258;27;20404;-46
2022/08/26 02:12:03;;;;;;;50.83;45.47;;;20.10;99.90;;;;;;5150304;27;20126;-46
2022/08/26 02:14:33;;;;;;;50.78;44.90;;;20.10;99.90;;;;;;5132376;27;20050;-49
2022/08/26 02:16:59;;;;;;;47.95;42.83;;;20.10;99.90;;;;;;5150816;27;20045;-45
2022/08/26 02:19:29;;;;;;;50.80;44.83;;;20.10;99.90;;;;;;5149378;27;20046;-46
2022/08/26 02:21:56;;;;;;;48.22;43.03;;;20.10;99.90;;;;;;5150255;27;20034;-46
2022/08/26 02:24:28;;;;;;;42.67;38.17;;;20.10;99.90;;;;;;5132095;27;20039;-46
2022/08/26 02:26:56;;;;;;;44.65;40.20;;;20.20;99.90;;;;;;5149422;27;20043;-45
2022/08/26 02:29:37;;;;;;;44.72;40.40;;;20.20;99.90;;;;;;5150664;27;20117;-46
2022/08/26 02:32:06;;;;;;;44.15;39.50;;;20.20;99.90;;;;;;5150629;27;20034;-48
2022/08/26 02:34:33;;;;;;;42.60;38.00;;;20.30;99.90;;;;;;5130630;27;20486;-47
2022/08/26 02:37:05;;;;;;;42.83;38.17;;;20.20;99.90;;;;;;5149639;27;20418;-47
2022/08/26 02:39:32;;;;;;;41.13;35.85;;;20.30;99.90;;;;;;5147940;27;20070;-47
2022/08/26 02:41:58;;;;;;;43.73;37.53;;;20.30;99.90;;;;;;5134786;27;20508;-47
2022/08/26 02:44:24;;;;;;;40.25;34.63;;;20.30;99.90;;;;;;5129478;27;20104;-46
2022/08/26 02:46:50;;;;;;;41.55;37.25;;;20.40;99.90;;;;;;5129489;27;20106;-47
2022/08/26 02:49:15;;;;;;;39.00;34.80;;;20.40;99.90;;;;;;5129689;27;20499;-46
2022/08/26 02:51:42;;;;;;;39.33;35.05;;;20.30;99.90;;;;;;5130619;27;20041;-47
2022/08/26 02:54:07;;;;;;;39.80;33.95;;;20.40;99.90;;;;;;5127235;27;20121;-49
2022/08/26 02:56:33;;;;;;;37.33;33.38;;;20.40;99.90;;;;;;5127392;27;20118;-45
2022/08/26 02:58:59;;;;;;;36.80;32.92;;;20.40;99.90;;;;;;5126421;27;20069;-48
2022/08/26 03:01:28;;;;;;;40.25;34.22;;;20.40;99.90;;;;;;5127841;27;20035;-46
2022/08/26 03:03:55;;;;;;;35.38;31.60;;;20.40;99.90;;;;;;5131330;27;20035;-47
2022/08/26 03:06:23;;;;;;;32.72;29.52;;;20.40;99.90;;;;;;5128821;27;20110;-47
2022/08/26 03:08:48;;;;;;;;;;;20.40;99.90;;;;;;5129084;27;20078;-48
2022/08/26 03:11:14;;;;;;;33.53;30.05;;;20.40;99.90;;;;;;5130370;27;20329;-46
2022/08/26 03:13:40;;;;;;;33.25;29.63;;;20.40;99.90;;;;;;5128855;27;20035;-46
2022/08/26 03:16:06;;;;;;;36.90;31.00;;;20.40;99.90;;;;;;5110591;27;20027;-49
2022/08/26 03:18:32;;;;;;;34.90;31.33;;;20.40;99.90;;;;;;5126054;27;20817;-47
2022/08/26 03:21:04;;;;;;;33.75;30.25;;;20.40;99.90;;;;;;5110849;27;20451;-48
2022/08/26 03:23:32;;;;;;;40.67;32.17;;;20.30;99.90;;;;;;5128860;27;20040;-48
2022/08/26 03:25:57;;;;;;;33.70;30.10;;;20.30;99.90;;;;;;5128215;27;20039;-46
2022/08/26 03:28:23;;;;;;;36.67;31.50;;;20.30;99.90;;;;;;5128788;27;20434;-49
2022/08/26 03:30:49;;;;;;;34.70;30.48;;;20.30;99.90;;;;;;5127600;27;20039;-44
2022/08/26 03:33:14;;;;;;;34.65;30.98;;;20.30;99.90;;;;;;5111316;27;20052;-50
2022/08/26 03:35:42;;;;;;;34.30;30.80;;;20.30;99.90;;;;;;5125360;27;20039;-48
2022/08/26 03:38:07;;;;;;;;;;;20.30;99.90;;;;;;5128478;27;20074;-48
2022/08/26 03:40:35;;;;;;;33.13;27.83;;;20.30;99.90;;;;;;5130230;27;19966;-46
2022/08/26 03:43:03;;;;;;;31.00;27.70;;;20.30;99.90;;;;;;5148977;27;20079;-50
2022/08/26 03:45:29;;;;;;;;;;;20.20;99.90;;;;;;5149475;27;20084;-46
2022/08/26 03:47:54;;;;;;;30.17;26.95;;;20.20;99.90;;;;;;5149439;27;20503;-47
2022/08/26 03:50:21;;;;;;;31.77;28.08;;;20.30;99.90;;;;;;5148647;27;20091;-46
2022/08/26 03:52:48;;;;;;;30.50;27.33;;;20.30;99.90;;;;;;5148777;27;20117;-47
2022/08/26 03:55:15;;;;;;;30.58;27.38;;;20.30;99.90;;;;;;5146265;27;20035;-45
2022/08/26 03:57:41;;;;;;;30.73;26.58;;;20.30;99.90;;;;;;5148024;27;20070;-48
2022/08/26 04:00:11;;;;;;;30.35;26.50;;;20.30;99.90;;;;;;5145609;27;20122;-48
2022/08/26 04:02:37;;;;;;;29.48;25.35;;;20.20;99.90;;;;;;5149793;27;20065;-50
2022/08/26 04:05:03;;;;;;;29.75;24.85;;;20.20;99.90;;;;;;5146399;27;20039;-48
2022/08/26 04:07:28;;;;;;;26.15;22.02;;;20.20;99.90;;;;;;5147614;27;20083;-48
2022/08/26 04:09:56;;;;;;;27.23;24.30;;;20.10;99.90;;;;;;5130752;27;20392;-46
2022/08/26 04:12:23;;;;;;;29.10;24.98;;;20.10;99.90;;;;;;5145117;27;20072;-45
2022/08/26 04:14:49;;;;;;;27.92;24.85;;;20.20;99.90;;;;;;5148327;27;20143;-45
2022/08/26 04:17:14;;;;;;;28.08;24.15;;;20.20;99.90;;;;;;5149301;27;20453;-49
2022/08/26 04:19:40;;;;;;;32.58;25.35;;;20.10;99.90;;;;;;5147155;27;20498;-45
2022/08/26 04:22:07;;;;;;;28.15;23.88;;;20.10;99.90;;;;;;5128871;27;20082;-46
2022/08/26 04:24:33;;;;;;;26.77;21.88;;;20.10;99.90;;;;;;5147387;27;20039;-48
2022/08/26 04:27:02;;;;;;;30.13;24.42;;;20.10;99.90;;;;;;5145341;27;20151;-49
2022/08/26 04:29:28;;;;;;;32.63;26.13;;;20.10;99.90;;;;;;5146805;27;20416;-48
2022/08/26 04:31:55;;;;;;;28.83;25.73;;;20.10;99.90;;;;;;5148111;27;20376;-49
2022/08/26 04:34:22;;;;;;;31.27;25.30;;;20.10;99.90;;;;;;5148454;27;20027;-46
2022/08/26 04:36:49;;;;;;;30.63;24.50;;;20.10;99.90;;;;;;5128839;27;20126;-49
2022/08/26 04:39:15;;;;;;;30.05;23.83;;;20.20;99.90;;;;;;5148163;27;20034;-50
2022/08/26 04:41:44;;;;;;;32.13;26.20;;;20.10;99.90;;;;;;5124459;27;20058;-50
2022/08/26 04:44:10;;;;;;;30.67;24.17;;;20.20;99.90;;;;;;5146988;27;20065;-49
2022/08/26 04:46:36;;;;;;;28.95;23.42;;;20.20;99.90;;;;;;5148440;27;20484;-48
2022/08/26 04:49:02;;;;;;;29.48;23.08;;;20.20;99.90;;;;;;5149694;27;20042;-49
2022/08/26 04:51:28;;;;;;;32.23;23.93;;;20.20;99.90;;;;;;5145965;27;20099;-47
2022/08/26 04:53:55;;;;;;;27.52;23.13;;;20.20;99.90;;;;;;5146381;27;20054;-49
2022/08/26 04:56:25;;;;;;;27.75;23.48;;;20.20;99.90;;;;;;5147748;27;20434;-47
2022/08/26 04:58:51;;;;;;;30.05;23.45;;;20.30;99.90;;;;;;5153180;27;20043;-47
2022/08/26 05:01:17;;;;;;;25.35;22.27;;;20.30;99.90;;;;;;5151849;27;20031;-50
2022/08/26 05:03:43;;;;;;;33.70;23.25;;;20.30;99.90;;;;;;5151220;27;20046;-47
2022/08/26 05:06:11;;;;;;;26.95;22.63;;;20.40;99.90;;;;;;5152697;27;20034;-45
2022/08/26 05:08:36;;;;;;;25.48;21.48;;;20.40;99.90;;;;;;5130339;27;20058;-46
2022/08/26 05:11:04;;;;;;;32.53;22.52;;;20.40;99.90;;;;;;5148123;27;20035;-48
2022/08/26 05:13:30;;;;;;;28.17;22.52;;;20.30;99.90;;;;;;5149508;27;20043;-46
2022/08/26 05:15:56;;;;;;;29.40;22.05;;;20.40;99.90;;;;;;5152720;27;20057;-47
2022/08/26 05:18:23;;;;;;;27.80;22.70;;;20.40;99.90;;;;;;5150136;27;20034;-50
2022/08/26 05:20:52;;;;;;;28.95;22.25;;;20.40;99.90;;;;;;5151061;27;20115;-48
2022/08/26 05:23:19;;;;;;;24.98;21.80;;;20.50;99.90;;;;;;5151368;27;20337;-46
2022/08/26 05:25:46;;;;;;;32.20;22.42;;;20.40;99.90;;;;;;5133108;27;20042;-46
2022/08/26 05:28:14;;;;;;;23.92;20.63;;;20.40;99.90;;;;;;5126836;27;20039;-46
2022/08/26 05:30:40;;;;;;;25.52;20.80;;;20.40;99.90;;;;;;5149838;27;20102;-50
2022/08/26 05:33:07;;;;;;;26.77;21.05;;;20.50;99.90;;;;;;5151881;27;20065;-48
2022/08/26 05:35:34;;;;;;;27.63;20.65;;;20.50;99.90;;;;;;5150833;27;20484;-46
2022/08/26 05:38:01;;;;;;;23.98;21.20;;;20.60;99.90;;;;;;5133232;27;20065;-45
2022/08/26 05:40:27;;;;;;;26.58;19.45;;;20.60;99.90;;;;;;5149784;27;20071;-46
2022/08/26 05:42:53;;;;;;;28.65;20.48;;;20.70;99.90;;;;;;5144451;27;20373;-46
2022/08/26 05:45:22;;;;;;;30.10;20.02;;;20.70;99.90;;;;;;5134601;27;20050;-45
2022/08/26 05:47:49;;;;;;;21.75;19.45;;;20.70;99.90;;;;;;5144989;27;20113;-46
2022/08/26 05:50:20;;;;;;;25.95;19.45;;;20.80;99.90;;;;;;5107058;27;20042;-45
2022/08/26 05:52:49;;;;;;;24.08;19.20;;;20.80;99.90;;;;;;5125370;27;20039;-47
2022/08/26 05:55:15;;;;;;;21.95;17.92;;;20.80;99.90;;;;;;5125263;27;20059;-51
2022/08/26 05:57:41;;;;;;;21.92;18.88;;;20.90;99.90;;;;;;5142907;27;20059;-46
2022/08/26 06:00:09;;;;;;;21.00;17.70;;;21.00;99.90;;;;;;5133062;27;20035;-46
2022/08/26 06:02:34;;;;;;;21.67;18.38;;;21.20;99.90;;;;;;5141457;27;20043;-46
2022/08/26 06:05:00;;;;;;;25.65;18.30;;;21.40;99.90;;;;;;5143318;27;20039;-48
2022/08/26 06:08:10;;;;;;;24.23;18.10;;;21.40;99.90;;;;;;5105751;27;20082;-45
2022/08/26 06:10:13;;;;;;;21.25;17.38;;;21.40;99.90;;;;;;5137275;27;20042;-47
2022/08/26 06:12:39;;;;;;;22.25;17.17;;;21.40;99.90;;;;;;5143331;27;20484;-47
2022/08/26 06:15:05;;;;;;;21.42;16.52;;;21.40;99.90;;;;;;5145788;27;20077;-45
2022/08/26 06:17:31;;;;;;;23.48;16.80;;;21.30;99.90;;;;;;5141123;27;20035;-45
2022/08/26 06:19:57;;;;;;;18.95;15.70;;;21.40;99.90;;;;;;5144664;27;20042;-49
2022/08/26 06:27:51;;;;;;;21.38;14.63;;;21.50;99.90;;;;;;5141021;27;20038;-48
2022/08/26 06:30:17;;;;;;;17.20;14.52;;;21.60;99.90;;;;;;5139780;27;20469;-52
2022/08/26 06:32:44;;;;;;;22.60;14.60;;;21.60;99.90;;;;;;5142371;27;20073;-47
2022/08/26 06:35:10;;;;;;;21.92;14.18;;;21.70;99.90;;;;;;5148708;27;20084;-47
2022/08/26 06:37:36;;;;;;;15.68;13.45;;;21.60;99.90;;;;;;5142335;27;20039;-47
2022/08/26 06:40:02;;;;;;;19.17;13.20;;;21.80;99.90;;;;;;5142089;27;20143;-48
2022/08/26 06:42:27;;;;;;;17.35;13.13;;;21.80;99.90;;;;;;5144011;27;20055;-46
2022/08/26 06:44:53;;;;;;;14.60;11.90;;;21.80;99.90;;;;;;5151265;27;20395;-46
2022/08/26 06:47:19;;;;;;;20.05;11.50;;;21.70;99.90;;;;;;5148652;27;20110;-46
2022/08/26 06:49:44;;;;;;;16.25;11.18;;;21.70;99.90;;;;;;5133655;27;20045;-47
2022/08/26 06:52:10;;;;;;;15.73;10.75;;;21.90;99.90;;;;;;5150898;27;21598;-49
2022/08/26 06:54:40;;;;;;;14.55;10.15;;;21.90;99.90;;;;;;5149871;27;20031;-49
2022/08/26 06:57:06;;;;;;;16.05;9.40;;;22.20;99.90;;;;;;5147590;27;20118;-46
2022/08/26 06:59:31;;;;;;;15.43;8.25;;;21.90;99.90;;;;;;5151873;27;20117;-48
2022/08/26 07:01:57;;;;;;;14.70;8.23;;;22.30;99.90;;;;;;5150854;27;20127;-44
2022/08/26 07:04:23;;;;;;;12.18;7.43;;;22.20;99.90;;;;;;5149746;27;20030;-45
2022/08/26 07:06:50;;;;;;;10.25;8.02;;;22.40;99.90;;;;;;5151290;27;20038;-45
2022/08/26 07:09:16;;;;;;;13.57;7.47;;;22.40;99.90;;;;;;5149334;27;20046;-48
2022/08/26 07:11:43;;;;;;;16.27;7.53;;;22.10;99.90;;;;;;5129693;27;20050;-47
2022/08/26 07:14:09;;;;;;;15.15;7.50;;;22.20;99.90;;;;;;5148859;27;20034;-50
2022/08/26 07:16:35;;;;;;;9.73;7.50;;;22.20;99.90;;;;;;5150669;27;20087;-47
2022/08/26 07:19:01;;;;;;;15.18;7.60;;;22.30;99.90;;;;;;5150149;27;20449;-49
2022/08/26 07:21:27;;;;;;;15.80;7.57;;;22.40;99.90;;;;;;5152210;27;20093;-46
2022/08/26 07:23:53;;;;;;;14.63;8.07;;;22.50;99.90;;;;;;5149016;27;20037;-47
2022/08/26 07:26:22;;;;;;;16.15;8.23;;;22.40;99.90;;;;;;5152559;27;20035;-47
2022/08/26 07:28:51;;;;;;;13.63;7.88;;;22.20;99.90;;;;;;5148295;27;20066;-46
2022/08/26 07:31:18;;;;;;;16.40;8.23;;;22.40;99.90;;;;;;5148537;27;20035;-48
2022/08/26 07:33:44;;;;;;;15.30;7.47;;;22.60;99.90;;;;;;5129686;27;20078;-48
2022/08/26 07:36:12;;;;;;;15.32;7.63;;;22.60;99.90;;;;;;5129967;27;20387;-48
2022/08/26 07:38:39;;;;;;;11.23;7.20;;;22.30;99.90;;;;;;5146003;27;20095;-47
2022/08/26 07:41:05;;;;;;;14.60;7.53;;;22.30;99.90;;;;;;5125388;27;20046;-48
2022/08/26 07:43:32;;;;;;;14.13;6.90;;;22.30;99.90;;;;;;5146035;27;20396;-45
2022/08/26 07:45:58;;;;;;;12.95;7.47;;;22.40;99.90;;;;;;5146762;27;20057;-46
2022/08/26 07:48:24;;;;;;;14.45;7.20;;;22.40;99.90;;;;;;5146413;27;21322;-48
2022/08/26 07:50:51;;;;;;;15.18;7.13;;;22.60;99.90;;;;;;5144392;27;20075;-51
2022/08/26 07:53:16;;;;;;;15.80;7.40;;;22.80;99.90;;;;;;5129312;27;20035;-46
2022/08/26 07:55:42;;;;;;;15.15;6.65;;;22.70;99.90;;;;;;5143314;27;20317;-50
2022/08/26 07:58:07;;;;;;;15.10;6.55;;;22.70;99.90;;;;;;5120352;27;21264;-50
2022/08/26 08:00:34;;;;;;;14.95;5.97;;;22.90;99.90;;;;;;5132021;27;20034;-50
2022/08/26 08:03:01;;;;;;;10.75;5.88;;;22.80;99.90;;;;;;5138701;27;20065;-49
2022/08/26 08:05:31;;;;;;;13.70;5.90;;;22.50;99.90;;;;;;5130213;27;20058;-46
2022/08/26 08:08:00;;;;;;;12.65;5.60;;;22.50;99.90;;;;;;5137238;27;20054;-46
2022/08/26 08:10:27;;;;;;;14.48;5.38;;;22.70;99.90;;;;;;5143042;27;20421;-50
2022/08/26 08:12:54;;;;;;;13.77;5.32;;;22.80;99.90;;;;;;5150837;27;20070;-50
2022/08/26 08:15:23;;;;;;;9.82;5.28;;;22.80;99.90;;;;;;5154092;27;20049;-48
2022/08/26 08:17:50;;;;;;;12.27;5.85;;;22.80;99.90;;;;;;5144361;27;20047;-50
2022/08/26 08:20:16;;;;;;;10.60;5.40;;;22.90;99.90;;;;;;5149402;27;20420;-53
2022/08/26 08:22:41;;;;;;;17.55;6.35;;;22.70;99.90;;;;;;5128079;27;20042;-50
2022/08/26 08:25:08;;;;;;;10.35;5.38;;;22.90;99.90;;;;;;5130582;27;20396;-48
2022/08/26 08:27:34;;;;;;;12.65;6.43;;;23.00;99.90;;;;;;5144684;27;20066;-46
2022/08/26 08:30:00;;;;;;;13.35;5.40;;;23.00;99.90;;;;;;5143161;27;20079;-48
2022/08/26 08:32:28;;;;;;;10.93;4.75;;;23.00;99.90;;;;;;5150518;27;20051;-48
2022/08/26 08:34:54;;;;;;;9.35;5.20;;;23.00;99.90;;;;;;5153792;27;20059;-49
2022/08/26 08:37:20;;;;;;;11.73;6.10;;;23.10;99.90;;;;;;5153773;27;20370;-49
2022/08/26 08:39:46;;;;;;;11.27;4.93;;;23.40;99.90;;;;;;5133650;27;20043;-52
2022/08/26 08:42:18;;;;;;;14.20;4.65;;;23.20;99.90;;;;;;5132843;27;20047;-48
2022/08/26 08:44:47;;;;;;;11.90;4.05;;;23.30;99.90;;;;;;5133007;28;20061;-48
2022/08/26 08:47:27;;;;;;;12.50;4.22;;;23.30;99.90;;;;;;5143105;27;20042;-49
2022/08/26 08:49:59;;;;;;;11.32;4.32;;;23.40;99.90;;;;;;5149094;27;20038;-47
2022/08/26 08:52:33;;;;;;;11.70;3.65;;;23.40;99.90;;;;;;5127412;27;20489;-48
2022/08/26 08:55:00;;;;;;;9.93;4.13;;;23.30;99.90;;;;;;5153150;27;20050;-50
2022/08/26 08:57:35;;;;;;;14.32;4.15;;;23.40;99.90;;;;;;5148012;27;20046;-50
2022/08/26 09:00:09;;;;;;;12.38;4.70;;;23.30;99.90;;;;;;5147960;27;20081;-51
2022/08/26 09:02:43;;;;;;;12.30;4.35;;;23.40;99.90;;;;;;5149521;27;20043;-47
2022/08/26 09:05:15;;;;;;;13.57;4.40;;;23.20;99.90;;;;;;5141170;27;20408;-46
2022/08/26 09:07:57;;;;;;;11.65;4.45;;;23.10;99.90;;;;;;5123940;27;20051;-46
2022/08/26 09:10:34;;;;;;;10.93;4.15;;;23.10;99.90;;;;;;5146147;27;20049;-49
2022/08/26 09:13:06;;;;;;;14.95;4.43;;;22.90;99.90;;;;;;5146526;27;20625;-47
2022/08/26 09:15:39;;;;;;;9.35;4.18;;;23.00;99.90;;;;;;5146533;27;20074;-49
2022/08/26 09:18:28;;;;;;;10.60;4.35;;;22.80;99.90;;;;;;5146102;27;20138;-46
2022/08/26 09:21:02;;;;;;;8.98;4.35;;;22.70;99.90;;;;;;5147681;27;20030;-47
2022/08/26 09:23:29;;;;;;;10.10;3.75;;;22.80;99.90;;;;;;5146645;27;20502;-46
2022/08/26 09:26:00;;;;;;;10.45;4.13;;;22.70;99.90;;;;;;5133186;27;20092;-50
2022/08/26 09:28:28;;;;;;;8.73;3.70;;;22.80;99.90;;;;;;5150458;27;20379;-49
2022/08/26 09:31:05;;;;;;;9.68;3.90;;;22.80;99.90;;;;;;5142693;27;20073;-45
2022/08/26 09:33:31;;;;;;;11.90;3.75;;;22.80;99.90;;;;;;5147549;27;20049;-50
2022/08/26 09:36:15;;;;;;;8.82;3.50;;;22.60;99.90;;;;;;5142559;27;20065;-46
2022/08/26 09:38:42;;;;;;;6.82;2.78;;;22.50;99.90;;;;;;5125411;27;20072;-48
2022/08/26 09:41:22;;;;;;;7.97;3.55;;;22.70;99.90;;;;;;5150267;27;20050;-47
2022/08/26 09:44:03;;;;;;;6.65;3.08;;;22.70;99.90;;;;;;5142877;27;20071;-50
2022/08/26 09:46:30;;;;;;;7.07;2.95;;;22.60;99.90;;;;;;5140058;27;20404;-49
2022/08/26 09:49:16;;;;;;;10.00;3.17;;;22.80;99.90;;;;;;5136073;27;20039;-50
2022/08/26 09:51:41;;;;;;;9.38;2.75;;;22.80;99.90;;;;;;5147831;27;20787;-48
2022/08/26 09:54:07;;;;;;;10.10;3.20;;;22.90;99.90;;;;;;5129228;27;20126;-51
2022/08/26 09:56:37;;;;;;;11.93;2.60;;;23.00;99.90;;;;;;5137264;27;20039;-49
2022/08/26 09:59:08;;;;;;;11.25;2.63;;;22.90;99.90;;;;;;5151155;27;20114;-48
2022/08/26 10:01:42;;;;;;;5.53;2.63;;;22.90;99.90;;;;;;5156610;27;20045;-51
2022/08/26 10:04:19;;;;;;;8.60;2.78;;;22.90;99.90;;;;;;5140076;27;20040;-51
2022/08/26 10:07:05;;;;;;;7.63;2.85;;;22.80;99.90;;;;;;5118150;27;20496;-48
2022/08/26 10:09:43;;;;;;;8.85;2.67;;;23.00;99.90;;;;;;5130276;27;20484;-47
2022/08/26 10:12:16;;;;;;;8.50;2.80;;;22.90;99.90;;;;;;5137615;27;20092;-46
2022/08/26 10:14:47;;;;;;;7.07;2.10;;;23.00;99.90;;;;;;5141401;27;20108;-49
2022/08/26 10:17:19;;;;;;;7.85;2.17;;;23.00;99.90;;;;;;5147230;27;20131;-47
2022/08/26 10:19:51;;;;;;;6.78;2.38;;;23.00;99.90;;;;;;5141674;27;20035;-51
2022/08/26 10:22:31;;;;;;;5.65;1.60;;;23.00;99.90;;;;;;5137050;27;20035;-48
2022/08/26 10:25:02;;;;;;;6.90;2.40;;;22.90;99.90;;;;;;5145113;27;20119;-47
2022/08/26 10:28:04;;;;;;;8.73;2.42;;;22.90;99.90;;;;;;5098239;27;20485;-47
2022/08/26 10:31:03;;;;;;;8.98;2.35;;;22.70;99.90;;;;;;5140208;27;20093;-48
2022/08/26 10:33:29;;;;;;;6.55;1.80;;;22.70;99.90;;;;;;5117848;27;20062;-47
2022/08/26 10:35:58;;;;;;;7.45;2.10;;;22.70;99.90;;;;;;5130643;27;20067;-47
2022/08/26 10:38:31;;;;;;;5.80;2.17;;;22.70;99.90;;;;;;5137152;27;20497;-46
2022/08/26 10:41:19;;;;;;;6.25;2.10;;;22.60;99.90;;;;;;5143312;27;20047;-46
2022/08/26 10:43:56;;;;;;;6.60;1.80;;;22.70;99.90;;;;;;5135044;27;20051;-48
2022/08/26 10:46:25;;;;;;;5.82;2.20;;;22.70;99.90;;;;;;5142489;27;20035;-47
2022/08/26 10:49:03;;;;;;;6.78;2.30;;;22.80;99.90;;;;;;5132708;27;20043;-49
2022/08/26 10:51:40;;;;;;;7.68;2.30;;;22.80;99.90;;;;;;5134450;27;20035;-48
2022/08/26 10:54:24;;;;;;;7.03;2.50;;;23.00;99.90;;;;;;5142128;27;20087;-50
2022/08/26 10:57:14;;;;;;;9.60;2.47;;;23.10;99.90;;;;;;5133686;27;20055;-51
2022/08/26 10:59:52;;;;;;;6.57;1.80;;;23.00;99.90;;;;;;5140911;27;20497;-48
2022/08/26 11:02:26;;;;;;;9.93;2.10;;;23.30;99.90;;;;;;5132987;27;20075;-50
2022/08/26 11:05:02;;;;;;;6.22;2.60;;;23.40;99.90;;;;;;5118812;27;20039;-47
2022/08/26 11:07:28;;;;;;;8.57;2.53;;;23.50;99.90;;;;;;5126910;27;20050;-48
2022/08/26 11:09:55;;;;;;;6.45;2.05;;;23.40;99.90;;;;;;5128608;27;20085;-47
2022/08/26 11:12:35;;;;;;;10.90;2.25;;;23.30;99.90;;;;;;5126460;27;20063;-50
2022/08/26 11:15:04;;;;;;;6.18;1.95;;;23.20;99.90;;;;;;5128827;27;20142;-47
2022/08/26 11:17:44;;;;;;;7.15;2.08;;;23.00;99.90;;;;;;5120401;27;20071;-53
2022/08/26 11:20:30;;;;;;;6.57;1.88;;;23.10;99.90;;;;;;5126645;27;20049;-49
2022/08/26 11:23:22;;;;;;;6.07;1.92;;;23.20;99.90;;;;;;5105785;27;20061;-51
2022/08/26 11:26:06;;;;;;;11.13;2.28;;;23.40;99.90;;;;;;5122508;27;20370;-47
2022/08/26 11:28:39;;;;;;;9.20;2.03;;;23.50;99.90;;;;;;5117273;27;20040;-48
2022/08/26 11:31:11;;;;;;;4.65;1.90;;;23.40;99.90;;;;;;5101301;27;20169;-47
2022/08/26 11:33:50;;;;;;;7.32;2.03;;;23.20;99.90;;;;;;5121971;27;20039;-49
2022/08/26 11:37:01;;;;;;;5.68;2.45;;;23.20;99.90;;;;;;5099073;27;20488;-46
2022/08/26 11:39:44;;;;;;;7.93;2.00;;;23.10;99.90;;;;;;5118317;27;21178;-49
2022/08/26 11:42:16;;;;;;;9.50;2.47;;;23.20;99.90;;;;;;5120079;27;20574;-47
2022/08/26 11:44:42;;;;;;;10.52;2.33;;;23.40;99.90;;;;;;5127932;27;20103;-46
2022/08/26 11:47:11;;;;;;;13.70;3.00;;;23.40;99.90;;;;;;5109353;27;20047;-48
2022/08/26 11:49:37;;;;;;;48.03;5.80;;;23.40;99.90;;;;;;5132456;27;20537;-48
2022/08/26 11:52:16;;;;;;;8.25;2.22;;;23.40;99.90;;;;;;5123249;27;20039;-47
2022/08/26 11:55:13;;;;;;;7.55;2.42;;;23.40;99.90;;;;;;5115619;27;20095;-48
2022/08/26 11:57:45;;;;;;;31.33;4.50;;;23.30;99.90;;;;;;5109619;27;20051;-51
2022/08/26 12:00:23;;;;;;;10.55;2.50;;;23.20;99.90;;;;;;5099664;27;20110;-51
2022/08/26 12:02:50;;;;;;;19.58;3.25;;;23.10;99.90;;;;;;5121973;27;20036;-50
2022/08/26 12:05:22;;;;;;;8.18;2.22;;;23.40;99.90;;;;;;5128413;27;20107;-47
2022/08/26 12:07:49;;;;;;;7.00;2.03;;;23.50;99.90;;;;;;5112988;28;20043;-50
2022/08/26 12:10:31;;;;;;;8.02;1.90;;;23.40;99.90;;;;;;5113700;27;20051;-48
2022/08/26 12:12:59;;;;;;;7.63;1.80;;;23.70;99.90;;;;;;5132539;27;20149;-50
2022/08/26 12:15:26;;;;;;;11.02;2.25;;;23.30;99.90;;;;;;5133342;27;20118;-47
2022/08/26 12:17:52;;;;;;;12.23;2.42;;;23.50;99.90;;;;;;5133121;27;20051;-50
2022/08/26 12:20:45;;;;;;;9.48;2.08;;;23.20;99.90;;;;;;5132922;27;20092;-48
2022/08/26 12:23:27;;;;;;;6.72;1.85;;;23.30;99.90;;;;;;5132898;27;20045;-49
2022/08/26 12:26:06;;;;;;;13.00;3.33;;;22.70;99.90;;;;;;5133354;27;20122;-50
2022/08/26 12:28:33;;;;;;;11.00;2.80;;;22.70;99.90;;;;;;5112204;28;20089;-47
2022/08/26 12:31:05;;;;;;;19.77;2.95;;;22.80;99.90;;;;;;5113727;28;20039;-49
2022/08/26 12:33:33;;;;;;;9.15;1.95;;;22.80;99.90;;;;;;5131862;27;20047;-48
2022/08/26 12:36:00;;;;;;;8.90;2.30;;;22.80;99.90;;;;;;5132669;28;20043;-49
2022/08/26 12:38:26;;;;;;;;;;;22.70;99.90;;;;;;5112832;28;20129;-47
2022/08/26 12:40:52;;;;;;;10.85;2.10;;;22.60;99.90;;;;;;5115397;28;19920;-49
2022/08/26 12:43:41;;;;;;;9.43;2.00;;;22.50;99.90;;;;;;5132572;27;20054;-48
2022/08/26 12:46:15;;;;;;;7.57;2.15;;;22.50;99.90;;;;;;5117608;27;20027;-46
2022/08/26 12:48:46;;;;;;;6.50;1.95;;;22.40;99.90;;;;;;5150521;27;20046;-49
2022/08/26 12:51:24;;;;;;;7.43;2.28;;;22.40;99.90;;;;;;5153662;27;20043;-49
2022/08/26 12:53:50;;;;;;;7.68;2.22;;;22.40;99.90;;;;;;5152974;27;20031;-47